createdAt,value
2023-04-18T00:00:12.153Z,17.73
2023-04-18T00:03:02.366Z,18.77
2023-04-18T00:05:30.955Z,19.08
2023-04-18T00:07:58.086Z,19.75
2023-04-18T00:10:25.307Z,22.40
2023-04-18T00:12:52.444Z,23.08
2023-04-18T00:15:19.292Z,19.23
2023-04-18T00:17:48.240Z,19.88
2023-04-18T00:20:15.244Z,19.88
2023-04-18T00:22:46.765Z,21.10
2023-04-18T00:25:13.740Z,20.70
2023-04-18T00:27:41.377Z,20.67
2023-04-18T00:30:09.174Z,21.83
2023-04-18T00:32:36.472Z,20.92
2023-04-18T00:35:04.211Z,19.05
2023-04-18T00:37:31.519Z,22.23
2023-04-18T00:39:58.330Z,18.13
2023-04-18T00:42:27.867Z,26.00
2023-04-18T00:47:22.154Z,19.25
2023-04-18T00:49:49.434Z,22.52
2023-04-18T00:52:18.540Z,22.48
2023-04-18T00:54:45.547Z,21.70
2023-04-18T00:57:13.232Z,18.77
2023-04-18T00:59:40.725Z,19.65
2023-04-18T01:02:08.054Z,21.38
2023-04-18T01:04:35.399Z,22.73
2023-04-18T01:07:03.448Z,20.35
2023-04-18T01:09:30.733Z,22.00
2023-04-18T01:11:57.882Z,24.55
2023-04-18T01:14:24.787Z,23.20
2023-04-18T01:16:51.974Z,20.50
2023-04-18T01:19:18.853Z,21.25
2023-04-18T01:21:46.058Z,22.02
2023-04-18T01:24:17.699Z,25.55
2023-04-18T01:26:49.503Z,25.25
2023-04-18T01:29:16.510Z,29.35
2023-04-18T01:31:43.759Z,23.65
2023-04-18T01:34:10.826Z,24.38
2023-04-18T01:36:39.642Z,28.08
2023-04-18T01:39:07.198Z,27.98
2023-04-18T01:41:34.356Z,28.38
2023-04-18T01:44:01.750Z,27.88
2023-04-18T01:46:29.089Z,28.40
2023-04-18T01:48:56.673Z,33.72
2023-04-18T01:51:23.866Z,32.35
2023-04-18T01:53:51.122Z,34.90
2023-04-18T01:56:18.286Z,34.42
2023-04-18T01:58:45.208Z,35.47
2023-04-18T02:01:12.569Z,34.10
2023-04-18T02:03:40.031Z,38.15
2023-04-18T02:06:07.781Z,42.38
2023-04-18T02:08:36.044Z,37.15
2023-04-18T02:11:03.870Z,37.20
2023-04-18T02:13:31.210Z,39.40
2023-04-18T02:15:58.505Z,35.58
2023-04-18T02:18:26.752Z,37.58
2023-04-18T02:20:54.045Z,35.28
2023-04-18T02:23:20.905Z,37.40
2023-04-18T02:25:48.016Z,35.95
2023-04-18T02:28:14.862Z,35.40
2023-04-18T02:30:42.030Z,34.63
2023-04-18T02:33:08.944Z,36.33
2023-04-18T02:35:38.057Z,33.10
2023-04-18T02:38:04.928Z,35.90
2023-04-18T02:40:32.070Z,34.35
2023-04-18T02:42:58.999Z,31.90
2023-04-18T02:45:26.246Z,33.90
2023-04-18T02:47:56.066Z,38.92
2023-04-18T02:50:25.122Z,33.78
2023-04-18T02:52:52.125Z,37.00
2023-04-18T02:55:19.366Z,32.28
2023-04-18T02:57:46.392Z,36.45
2023-04-18T03:00:14.225Z,41.72
2023-04-18T03:02:41.189Z,36.78
2023-04-18T03:05:08.668Z,38.70
2023-04-18T03:07:35.840Z,41.40
2023-04-18T03:10:03.093Z,34.80
2023-04-18T03:12:29.923Z,40.17
2023-04-18T03:14:57.165Z,36.60
2023-04-18T03:17:24.133Z,38.63
2023-04-18T03:19:51.294Z,39.80
2023-04-18T03:22:18.109Z,39.05
2023-04-18T03:24:45.281Z,39.92
2023-04-18T03:27:13.033Z,40.45
2023-04-18T03:29:40.281Z,37.00
2023-04-18T03:32:07.126Z,36.15
2023-04-18T03:34:34.204Z,40.10
2023-04-18T03:37:01.263Z,36.60
2023-04-18T03:39:28.395Z,37.88
2023-04-18T03:41:55.335Z,39.13
2023-04-18T03:44:22.466Z,37.85
2023-04-18T03:46:49.473Z,41.13
2023-04-18T03:49:16.666Z,44.28
2023-04-18T03:51:49.084Z,40.10
2023-04-18T03:54:17.267Z,39.22
2023-04-18T03:56:45.204Z,36.95
2023-04-18T03:59:12.580Z,40.40
2023-04-18T04:01:39.491Z,43.80
2023-04-18T04:04:06.969Z,45.38
2023-04-18T04:06:33.965Z,53.38
2023-04-18T04:09:01.333Z,41.80
2023-04-18T04:11:28.323Z,46.53
2023-04-18T04:13:55.525Z,42.55
2023-04-18T04:16:22.480Z,43.08
2023-04-18T04:18:49.718Z,37.33
2023-04-18T04:21:17.306Z,34.63
2023-04-18T04:23:46.365Z,37.85
2023-04-18T04:26:15.141Z,35.17
2023-04-18T04:28:46.421Z,34.45
2023-04-18T04:31:13.416Z,32.15
2023-04-18T04:33:41.129Z,33.15
2023-04-18T04:36:09.068Z,28.30
2023-04-18T04:38:38.588Z,31.25
2023-04-18T04:41:09.289Z,30.83
2023-04-18T04:43:36.680Z,29.13
2023-04-18T04:46:04.611Z,31.27
2023-04-18T04:48:31.877Z,37.40
2023-04-18T04:51:00.664Z,29.27
2023-04-18T04:53:32.752Z,29.15
2023-04-18T04:55:59.672Z,26.38
2023-04-18T04:58:27.168Z,25.02
2023-04-18T05:00:55.010Z,25.13
2023-04-18T05:03:22.583Z,24.13
2023-04-18T05:05:49.560Z,26.42
2023-04-18T05:08:16.656Z,24.45
2023-04-18T05:10:43.580Z,22.70
2023-04-18T05:13:10.759Z,24.70
2023-04-18T05:15:39.604Z,23.27
2023-04-18T05:18:06.835Z,24.58
2023-04-18T05:20:33.715Z,21.23
2023-04-18T05:23:01.107Z,25.88
2023-04-18T05:25:29.773Z,21.05
2023-04-18T05:27:57.345Z,24.95
2023-04-18T05:30:24.252Z,18.52
2023-04-18T05:32:51.505Z,20.67
2023-04-18T05:35:18.520Z,17.00
2023-04-18T05:37:45.782Z,24.65
2023-04-18T05:40:13.329Z,16.92
2023-04-18T05:42:40.525Z,19.50
2023-04-18T05:45:08.016Z,25.05
2023-04-18T05:47:35.160Z,19.38
2023-04-18T05:50:02.124Z,19.23
2023-04-18T05:52:29.295Z,17.38
2023-04-18T05:54:56.160Z,19.55
2023-04-18T05:57:23.322Z,16.85
2023-04-18T05:59:50.166Z,15.65
2023-04-18T06:02:17.414Z,17.20
2023-04-18T06:04:45.293Z,19.60
2023-04-18T06:07:12.819Z,21.63
2023-04-18T06:09:39.929Z,19.35
2023-04-18T06:12:07.207Z,18.15
2023-04-18T06:14:34.082Z,21.05
2023-04-18T06:17:01.317Z,18.70
2023-04-18T06:19:28.222Z,16.90
2023-04-18T06:21:55.442Z,17.17
2023-04-18T06:24:23.160Z,15.85
2023-04-18T06:26:50.375Z,13.98
2023-04-18T06:29:18.301Z,17.08
2023-04-18T06:31:46.814Z,13.52
2023-04-18T06:34:14.355Z,12.45
2023-04-18T06:36:41.720Z,14.98
2023-04-18T06:39:08.984Z,12.88
2023-04-18T06:41:36.080Z,15.52
2023-04-18T06:44:04.623Z,15.38
2023-04-18T06:46:32.799Z,12.82
2023-04-18T06:48:59.848Z,9.98
2023-04-18T06:51:27.619Z,8.75
2023-04-18T06:53:54.607Z,11.32
2023-04-18T06:56:21.878Z,11.85
2023-04-18T06:58:49.761Z,15.32
2023-04-18T07:01:17.025Z,9.15
2023-04-18T07:03:44.159Z,11.85
2023-04-18T07:06:11.389Z,8.93
2023-04-18T07:08:38.409Z,10.48
2023-04-18T07:11:06.782Z,11.45
2023-04-18T07:13:33.713Z,10.77
2023-04-18T07:16:01.687Z,9.80
2023-04-18T07:18:37.150Z,11.52
2023-04-18T07:21:07.850Z,12.02
2023-04-18T07:23:35.817Z,10.70
2023-04-18T07:26:03.692Z,9.75
2023-04-18T07:28:31.946Z,8.30
2023-04-18T07:30:59.388Z,11.63
2023-04-18T07:33:26.369Z,8.43
2023-04-18T07:35:53.545Z,12.45
2023-04-18T07:38:20.703Z,10.68
2023-04-18T07:40:57.178Z,7.97
2023-04-18T07:43:24.280Z,7.78
2023-04-18T07:45:52.202Z,8.25
2023-04-18T07:48:22.212Z,7.93
2023-04-18T07:50:49.691Z,7.50
2023-04-18T07:53:16.920Z,7.22
2023-04-18T07:55:44.773Z,9.48
2023-04-18T07:58:11.668Z,6.35
2023-04-18T08:00:39.372Z,9.32
2023-04-18T08:03:07.805Z,9.90
2023-04-18T08:05:35.138Z,7.38
2023-04-18T08:08:02.349Z,5.88
2023-04-18T08:10:29.643Z,6.60
2023-04-18T08:12:56.510Z,8.65
2023-04-18T08:15:23.735Z,6.47
2023-04-18T08:17:51.524Z,7.47
2023-04-18T08:20:18.732Z,7.22
2023-04-18T08:23:02.257Z,9.43
2023-04-18T08:25:33.316Z,8.05
2023-04-18T08:28:00.699Z,6.43
2023-04-18T08:30:28.178Z,8.15
2023-04-18T08:32:55.158Z,5.57
2023-04-18T08:35:22.582Z,6.60
2023-04-18T08:37:49.402Z,7.63
2023-04-18T08:40:16.938Z,7.22
2023-04-18T08:42:47.092Z,7.95
2023-04-18T08:45:14.734Z,6.30
2023-04-18T08:47:42.404Z,5.72
2023-04-18T08:50:10.674Z,7.60
2023-04-18T08:52:39.745Z,6.03
2023-04-18T08:57:36.006Z,10.13
2023-04-18T09:00:10.333Z,4.50
2023-04-18T09:02:46.992Z,7.50
2023-04-18T09:05:16.643Z,5.32
2023-04-18T09:07:43.565Z,4.35
2023-04-18T09:10:12.685Z,8.27
2023-04-18T09:12:50.209Z,5.97
2023-04-18T09:15:23.329Z,9.73
2023-04-18T09:17:56.264Z,5.72
2023-04-18T09:20:35.802Z,5.78
2023-04-18T09:25:36.140Z,5.20
2023-04-18T09:28:05.057Z,4.15
2023-04-18T09:30:40.676Z,7.40
2023-04-18T09:33:12.746Z,4.95
2023-04-18T09:35:39.996Z,4.97
2023-04-18T09:38:07.912Z,4.85
2023-04-18T09:40:35.762Z,6.87
2023-04-18T09:43:19.199Z,4.53
2023-04-18T09:45:50.191Z,4.43
2023-04-18T09:48:17.175Z,4.90
2023-04-18T09:50:46.371Z,7.97
2023-04-18T09:53:15.569Z,4.78
2023-04-18T09:55:43.017Z,5.30
2023-04-18T09:58:11.058Z,6.68
2023-04-18T10:00:39.900Z,3.90
2023-04-18T10:03:08.852Z,4.65
2023-04-18T10:05:39.178Z,5.43
2023-04-18T10:08:06.999Z,5.05
2023-04-18T10:10:34.267Z,3.70
2023-04-18T10:13:03.017Z,5.72
2023-04-18T10:15:32.099Z,4.90
2023-04-18T10:18:07.100Z,4.72
2023-04-18T10:20:35.404Z,3.95
2023-04-18T10:23:36.343Z,4.03
2023-04-18T10:26:08.168Z,4.97
2023-04-18T10:28:56.476Z,5.10
2023-04-18T10:31:25.789Z,6.18
2023-04-18T10:36:28.732Z,7.93
2023-04-18T10:39:00.628Z,5.38
2023-04-18T10:41:32.334Z,3.83
2023-04-18T10:44:08.846Z,5.45
2023-04-18T10:46:38.222Z,7.28
2023-04-18T10:49:20.205Z,3.75
2023-04-18T10:51:49.699Z,4.40
2023-04-18T10:54:46.509Z,4.90
2023-04-18T10:57:13.975Z,4.18
2023-04-18T10:59:48.343Z,6.72
2023-04-18T11:02:24.784Z,5.72
2023-04-18T11:04:56.998Z,4.28
2023-04-18T11:07:48.910Z,5.15
2023-04-18T11:10:24.613Z,7.50
2023-04-18T11:12:52.767Z,6.63
2023-04-18T11:15:22.231Z,3.15
2023-04-18T11:18:01.387Z,3.80
2023-04-18T11:20:30.124Z,3.00
2023-04-18T11:22:58.884Z,8.90
2023-04-18T11:25:28.941Z,3.80
2023-04-18T11:28:00.206Z,3.90
2023-04-18T11:30:28.450Z,3.38
2023-04-18T11:32:56.055Z,3.00
2023-04-18T11:35:23.090Z,2.70
2023-04-18T11:37:51.300Z,5.80
2023-04-18T11:40:18.373Z,3.78
2023-04-18T11:42:45.663Z,3.50
2023-04-18T11:45:14.542Z,2.92
2023-04-18T11:50:12.424Z,4.07
2023-04-18T11:52:41.701Z,5.20
2023-04-18T11:55:25.517Z,5.38
2023-04-18T11:57:56.876Z,9.57
2023-04-18T12:00:38.748Z,2.95
2023-04-18T12:03:16.306Z,8.70
2023-04-18T12:05:43.771Z,5.88
2023-04-18T12:08:11.911Z,3.88
2023-04-18T12:10:51.871Z,3.78
2023-04-18T12:13:24.085Z,3.30
2023-04-18T12:15:51.100Z,3.30
2023-04-18T12:18:19.927Z,3.88
2023-04-18T12:20:51.686Z,3.53
2023-04-18T12:23:32.343Z,6.28
2023-04-18T12:26:13.044Z,2.72
2023-04-18T12:28:44.422Z,3.83
2023-04-18T12:31:11.532Z,4.07
2023-04-18T12:33:38.668Z,3.00
2023-04-18T12:36:06.221Z,2.35
2023-04-18T12:38:33.388Z,5.72
2023-04-18T12:41:00.369Z,6.22
2023-04-18T12:43:27.580Z,4.70
2023-04-18T12:45:54.512Z,3.78
2023-04-18T12:48:21.661Z,3.85
2023-04-18T12:50:48.518Z,4.57
2023-04-18T12:53:15.758Z,3.22
2023-04-18T12:55:42.669Z,2.70
2023-04-18T12:58:09.874Z,3.83
2023-04-18T13:00:37.271Z,3.67
2023-04-18T13:03:04.980Z,6.45
2023-04-18T13:05:34.015Z,2.45
2023-04-18T13:10:32.157Z,6.55
2023-04-18T13:12:59.295Z,5.55
2023-04-18T13:15:27.726Z,7.47
2023-04-18T13:17:58.453Z,8.38
2023-04-18T13:20:25.587Z,3.38
2023-04-18T13:22:52.780Z,4.50
2023-04-18T13:25:19.730Z,8.48
2023-04-18T13:27:46.955Z,4.18
2023-04-18T13:30:14.009Z,6.97
2023-04-18T13:32:41.624Z,9.73
2023-04-18T13:37:38.757Z,5.28
2023-04-18T13:40:06.991Z,14.48
2023-04-18T13:42:35.927Z,6.95
2023-04-18T13:45:03.381Z,10.80
2023-04-18T13:47:30.638Z,4.53
2023-04-18T13:49:57.989Z,16.35
2023-04-18T13:52:25.932Z,13.13
2023-04-18T13:54:53.135Z,8.45
2023-04-18T13:57:21.049Z,14.60
2023-04-18T13:59:47.981Z,24.60
2023-04-18T14:02:15.361Z,9.43
2023-04-18T14:04:42.613Z,17.58
2023-04-18T14:07:09.974Z,23.20
2023-04-18T14:09:36.857Z,8.02
2023-04-18T14:12:04.341Z,12.75
2023-04-18T14:14:31.252Z,8.32
2023-04-18T14:16:58.407Z,9.68
2023-04-18T14:19:25.378Z,4.80
2023-04-18T14:21:52.527Z,7.38
2023-04-18T14:24:19.458Z,14.52
2023-04-18T14:26:46.632Z,16.45
2023-04-18T14:29:14.455Z,4.18
2023-04-18T14:31:42.011Z,27.57
2023-04-18T14:34:09.841Z,11.55
2023-04-18T14:36:37.103Z,15.90
2023-04-18T14:39:04.841Z,7.68
2023-04-18T14:41:32.067Z,14.80
2023-04-18T14:43:59.535Z,13.07
2023-04-18T14:46:28.281Z,6.80
2023-04-18T14:48:55.318Z,6.60
2023-04-18T14:51:24.162Z,5.72
2023-04-18T14:53:51.364Z,17.02
2023-04-18T14:56:21.222Z,5.97
2023-04-18T14:58:48.533Z,20.27
2023-04-18T15:01:17.571Z,3.42
2023-04-18T15:03:45.574Z,17.90
2023-04-18T15:06:12.965Z,10.70
2023-04-18T15:08:39.927Z,16.35
2023-04-18T15:11:08.268Z,17.40
2023-04-18T15:13:35.293Z,14.05
2023-04-18T15:16:02.644Z,10.38
2023-04-18T15:18:29.624Z,7.30
2023-04-18T15:20:59.284Z,6.97
2023-04-18T15:23:26.223Z,5.82
2023-04-18T15:25:53.392Z,5.80
2023-04-18T15:28:20.334Z,8.98
2023-04-18T15:30:47.564Z,5.63
2023-04-18T15:33:15.692Z,11.77
2023-04-18T15:35:42.894Z,15.65
2023-04-18T15:38:09.759Z,15.98
2023-04-18T15:40:37.079Z,9.80
2023-04-18T15:43:04.299Z,5.78
2023-04-18T15:45:31.892Z,8.57
2023-04-18T15:47:58.868Z,5.95
2023-04-18T15:50:26.189Z,17.50
2023-04-18T15:52:53.225Z,11.88
2023-04-18T15:55:20.379Z,11.30
2023-04-18T15:57:47.269Z,13.98
2023-04-18T16:00:17.792Z,13.73
2023-04-18T16:02:45.451Z,16.50
2023-04-18T16:05:13.894Z,8.70
2023-04-18T16:07:42.427Z,11.63
2023-04-18T16:10:10.842Z,9.35
2023-04-18T16:12:39.116Z,7.70
2023-04-18T16:15:08.726Z,13.10
2023-04-18T16:20:03.828Z,10.75
2023-04-18T16:22:30.792Z,17.65
2023-04-18T16:24:57.915Z,7.90
2023-04-18T16:27:24.877Z,14.30
2023-04-18T16:29:53.773Z,11.63
2023-04-18T16:32:21.248Z,12.90
2023-04-18T16:34:48.593Z,20.08
2023-04-18T16:37:15.755Z,14.10
2023-04-18T16:39:42.996Z,21.05
2023-04-18T16:42:10.272Z,18.95
2023-04-18T16:44:39.376Z,19.67
2023-04-18T16:47:08.320Z,14.65
2023-04-18T16:52:02.709Z,14.93
2023-04-18T16:54:30.042Z,23.83
2023-04-18T16:56:57.144Z,19.77
2023-04-18T16:59:24.421Z,17.17
2023-04-18T17:01:51.331Z,14.32
2023-04-18T17:04:18.611Z,14.70
2023-04-18T17:06:45.592Z,18.65
2023-04-18T17:09:14.623Z,17.92
2023-04-18T17:11:42.002Z,17.35
2023-04-18T17:14:09.424Z,13.20
2023-04-18T17:16:40.888Z,18.40
2023-04-18T17:19:09.137Z,22.95
2023-04-18T17:21:37.090Z,16.17
2023-04-18T17:24:06.788Z,22.98
2023-04-18T17:26:35.378Z,19.77
2023-04-18T17:29:04.391Z,21.55
2023-04-18T17:31:32.230Z,21.13
2023-04-18T17:34:00.151Z,26.80
2023-04-18T17:36:27.314Z,23.88
2023-04-18T17:38:54.586Z,25.20
2023-04-18T17:41:22.008Z,50.72
2023-04-18T17:43:51.075Z,60.47
2023-04-18T17:46:18.336Z,42.58
2023-04-18T17:48:45.629Z,41.90
2023-04-18T17:51:12.604Z,26.83
2023-04-18T17:53:39.726Z,42.50
2023-04-18T17:56:06.624Z,40.25
2023-04-18T17:58:33.841Z,42.90
2023-04-18T18:01:00.772Z,71.68
2023-04-18T18:03:28.277Z,35.38
2023-04-18T18:05:55.323Z,60.15
2023-04-18T18:08:22.783Z,57.35
2023-04-18T18:10:50.022Z,42.92
2023-04-18T18:13:17.309Z,40.85
2023-04-18T18:15:44.209Z,24.67
2023-04-18T18:18:11.556Z,23.83
2023-04-18T18:20:42.081Z,23.02
2023-04-18T18:23:09.260Z,27.55
2023-04-18T18:25:37.844Z,35.30
2023-04-18T18:28:05.201Z,22.00
2023-04-18T18:30:32.045Z,20.15
2023-04-18T18:33:00.766Z,35.20
2023-04-18T18:35:27.754Z,71.20
2023-04-18T18:37:54.940Z,31.83
2023-04-18T18:40:22.094Z,52.53
2023-04-18T18:42:54.700Z,40.28
2023-04-18T18:45:21.761Z,49.83
2023-04-18T18:47:49.048Z,38.35
2023-04-18T18:50:15.995Z,111.93
2023-04-18T18:52:43.352Z,35.05
2023-04-18T18:55:11.322Z,31.92
2023-04-18T18:57:38.487Z,63.08
2023-04-18T19:00:10.874Z,75.03
2023-04-18T19:02:38.932Z,110.60
2023-04-18T19:05:06.916Z,81.43
2023-04-18T19:07:34.180Z,50.50
2023-04-18T19:10:01.848Z,42.10
2023-04-18T19:12:29.374Z,53.40
2023-04-18T19:14:56.325Z,61.78
2023-04-18T19:17:24.920Z,56.33
2023-04-18T19:19:52.964Z,59.88
2023-04-18T19:22:20.132Z,51.90
2023-04-18T19:24:47.020Z,48.85
2023-04-18T19:27:14.158Z,49.05
2023-04-18T19:29:41.097Z,40.92
2023-04-18T19:32:08.279Z,33.47
2023-04-18T19:34:35.464Z,35.20
2023-04-18T19:37:02.622Z,31.42
2023-04-18T19:39:29.812Z,34.70
2023-04-18T19:41:57.074Z,28.27
2023-04-18T19:44:23.941Z,29.98
2023-04-18T19:46:51.151Z,25.38
2023-04-18T19:49:17.955Z,27.75
2023-04-18T19:51:45.340Z,26.38
2023-04-18T19:54:12.261Z,33.05
2023-04-18T19:56:39.384Z,29.08
2023-04-18T19:59:06.273Z,48.17
2023-04-18T20:01:33.424Z,55.83
2023-04-18T20:04:01.030Z,65.30
2023-04-18T20:06:28.728Z,58.67
2023-04-18T20:08:55.789Z,65.50
2023-04-18T20:11:22.946Z,57.92
2023-04-18T20:13:52.304Z,53.78
2023-04-18T20:16:19.443Z,63.08
2023-04-18T20:18:47.516Z,45.92
2023-04-18T20:21:15.408Z,57.40
2023-04-18T20:23:42.854Z,52.25
2023-04-18T20:26:10.018Z,52.63
2023-04-18T20:28:37.989Z,41.38
2023-04-18T20:31:05.430Z,48.25
2023-04-18T20:33:32.982Z,38.08
2023-04-18T20:36:00.346Z,40.30
2023-04-18T20:38:29.716Z,51.10
2023-04-18T20:40:58.917Z,61.08
2023-04-18T20:43:26.178Z,60.65
2023-04-18T20:45:54.577Z,60.63
2023-04-18T20:48:21.557Z,63.33
2023-04-18T20:50:52.053Z,53.67
2023-04-18T20:53:27.197Z,57.50
2023-04-18T20:55:54.482Z,47.17
2023-04-18T20:58:21.357Z,52.88
2023-04-18T21:00:49.007Z,50.30
2023-04-18T21:03:16.624Z,51.28
2023-04-18T21:05:45.184Z,44.33
2023-04-18T21:08:12.206Z,45.72
2023-04-18T21:10:39.911Z,39.08
2023-04-18T21:13:06.976Z,42.97
2023-04-18T21:15:35.899Z,34.53
2023-04-18T21:18:03.034Z,38.45
2023-04-18T21:20:30.295Z,34.75
2023-04-18T21:22:57.114Z,36.58
2023-04-18T21:25:24.192Z,37.35
2023-04-18T21:27:51.030Z,38.55
2023-04-18T21:30:18.429Z,37.42
2023-04-18T21:32:47.217Z,35.65
2023-04-18T21:37:43.404Z,33.08
2023-04-18T21:40:10.975Z,35.47
2023-04-18T21:42:37.905Z,39.10
2023-04-18T21:45:06.273Z,38.72
2023-04-18T21:47:33.272Z,38.55
2023-04-18T21:50:00.567Z,34.22
2023-04-18T21:52:27.426Z,34.38
2023-04-18T21:54:54.605Z,33.83
2023-04-18T21:57:21.707Z,38.20
2023-04-18T21:59:48.796Z,33.13
2023-04-18T22:02:16.049Z,38.63
2023-04-18T22:04:44.240Z,34.05
2023-04-18T22:07:12.465Z,31.85
2023-04-18T22:09:39.855Z,35.67
2023-04-18T22:12:07.016Z,34.13
2023-04-18T22:14:34.306Z,38.08
2023-04-18T22:17:03.354Z,39.78
2023-04-18T22:21:58.866Z,41.58
2023-04-18T22:24:26.105Z,35.15
2023-04-18T22:26:53.801Z,32.05
2023-04-18T22:29:20.963Z,39.88
2023-04-18T22:31:47.811Z,44.13
2023-04-18T22:34:15.207Z,42.33
2023-04-18T22:36:43.578Z,43.47
2023-04-18T22:39:12.148Z,41.33
2023-04-18T22:41:39.066Z,43.05
2023-04-18T22:44:07.302Z,37.85
2023-04-18T22:46:34.208Z,48.08
2023-04-18T22:49:01.460Z,39.30
2023-04-18T22:51:28.955Z,41.38
2023-04-18T22:53:56.637Z,44.13
2023-04-18T22:56:23.561Z,41.35
2023-04-18T22:58:51.025Z,37.53
2023-04-18T23:01:18.100Z,35.28
2023-04-18T23:03:45.593Z,39.05
2023-04-18T23:06:12.558Z,37.92
2023-04-18T23:08:39.757Z,37.70
2023-04-18T23:11:06.596Z,36.25
2023-04-18T23:13:33.751Z,40.33
2023-04-18T23:16:00.706Z,38.65
2023-04-18T23:18:31.039Z,40.33
2023-04-18T23:20:59.856Z,38.92
2023-04-18T23:23:27.034Z,36.95
2023-04-18T23:25:53.904Z,39.72
2023-04-18T23:28:21.278Z,30.88
2023-04-18T23:30:50.182Z,36.35
2023-04-18T23:33:17.344Z,38.72
2023-04-18T23:35:44.275Z,35.80
2023-04-18T23:38:11.444Z,38.35
2023-04-18T23:40:38.259Z,41.25
2023-04-18T23:43:05.392Z,40.88
2023-04-18T23:45:32.258Z,38.88
2023-04-18T23:47:59.487Z,34.97
2023-04-18T23:50:26.427Z,42.00
2023-04-18T23:52:53.576Z,40.50
2023-04-18T23:55:20.529Z,39.58
2023-04-18T23:57:47.679Z,34.65
